Fulton County Airport Brown Field
KFTY : now visible

Airfield :











YOU CAN JOIN US ON...

 
LOGIN :

Register | Disclaimer

   EN    FR    IT 

 









Legend :    VFR   Marginal VFR   IFR   Intensive IFR   Very Intensive IFR
Visi :
Ceiling :
>= 8 km
>= 3000ft
5 to 8 km
1000 to 3000 ft
1500m to 5 km
500 to 1000 ft
800 to 1500m
200 to 500 ft
< 800m
< 200 ft
Symbols :   Thunderstorms  Fog  Heavy snow  Heavy precipitations  Wind > 20 kt






- Airport Elevation : 841 ft


KFTY - Fulton County Brown Field

CURRENT METAR :
  • 231353Z 00000KT 10SM CLR 03/01 A3033 RMK AO2 SLP273 T00280006

EXPIRED METARs :
  • 231253Z 00000KT 10SM CLR 00/M01 A3030 RMK AO2 SLP264 T00001006
  • 231153Z 00000KT 10SM CLR M01/M02 A3029 RMK AO2 SLP259 T10061017 10022 21006 56002

TAF KFTY
Valid from the 23 at 12:00 until the 24 at 12:00 UTC


231120Z 2312/2412 00000KT P6SM BKN250
FM231400 21004KT P6SM BKN100
FM240000 00000KT P6SM OVC080
FM240600 00000KT P6SM VCSH OVC080
PROB30 2408/2412 -SHRA OVC040



MET'MAP, your aeronautical weather chart ! - Copyright ORBIFLY December 2007 - Disclaimer

ORBIFLY MET'MAP TEAM :

Programming & Development : Alexandra Zaïnal
Concept & original design : Baudouin d'Aumeries
Assistance for programming : Marc-Olivier Méhu
Technical & hardware support : Manuel Goepfert

Contact : metmap@orbifly.com




SOURCES & CREDITS :

   NOAA       Earth
Advisory